Time;durP1;ratioP1;P1;durP2;ratioP2;P2;SDS_P1;SDS_P2;PMS_P1;PMS_P2;Temp;Humidity;BMP_temperature;BMP_pressure;BME280_temperature;BME280_humidity;BME280_pressure;Samples;Min_cycle;Max_cycle;Signal;HPM_P1;HPM_P2
2023/07/12 00:00:48;;;;;;;5.53;2.60;;;20.40;99.90;;;;;;5084129;28;20047;-69
2023/07/12 00:03:16;;;;;;;4.45;1.90;;;20.30;99.90;;;;;;5081991;28;20040;-69
2023/07/12 00:05:42;;;;;;;5.93;2.47;;;20.30;99.90;;;;;;5075405;28;20051;-69
2023/07/12 00:08:20;;;;;;;6.43;2.17;;;20.30;99.90;;;;;;5077723;28;20094;-68
2023/07/12 00:10:47;;;;;;;4.63;2.30;;;20.30;99.90;;;;;;5079779;28;20083;-68
2023/07/12 00:13:13;;;;;;;5.82;2.25;;;20.20;99.90;;;;;;5081376;28;20040;-69
2023/07/12 00:15:39;;;;;;;8.25;2.30;;;20.20;99.90;;;;;;5081793;28;20048;-69
2023/07/12 00:18:15;;;;;;;6.38;2.40;;;20.20;99.90;;;;;;5060090;28;20048;-68
2023/07/12 00:20:41;;;;;;;4.93;2.17;;;20.20;99.90;;;;;;5077599;28;20881;-68
2023/07/12 00:23:10;;;;;;;6.28;2.60;;;20.10;99.90;;;;;;5079524;28;20435;-69
2023/07/12 00:25:37;;;;;;;6.05;2.47;;;20.10;99.90;;;;;;5074970;28;20032;-69
2023/07/12 00:28:11;;;;;;;4.85;2.22;;;20.10;99.90;;;;;;5078216;28;20110;-69
2023/07/12 00:30:37;;;;;;;9.68;2.53;;;20.00;99.90;;;;;;5077188;28;20194;-69
2023/07/12 00:33:03;;;;;;;8.02;2.50;;;20.00;99.90;;;;;;5061018;28;20526;-69
2023/07/12 00:35:31;;;;;;;4.97;2.22;;;20.00;99.90;;;;;;5059051;28;20055;-68
2023/07/12 00:38:00;;;;;;;6.97;2.75;;;20.00;99.90;;;;;;5075806;28;20044;-68
2023/07/12 00:40:41;;;;;;;6.97;2.38;;;19.90;99.90;;;;;;5055767;28;20408;-68
2023/07/12 00:43:43;;;;;;;6.40;2.90;;;19.90;99.90;;;;;;5077576;28;20055;-69
2023/07/12 00:46:29;;;;;;;;;;;19.90;99.90;;;;;;5077063;28;20059;-68
2023/07/12 00:48:54;;;;;;;5.53;2.20;;;19.80;99.90;;;;;;5076511;28;19995;-69
2023/07/12 00:51:36;;;;;;;7.05;2.72;;;19.80;99.90;;;;;;5079349;28;20036;-68
2023/07/12 00:54:10;;;;;;;6.40;3.25;;;19.80;99.90;;;;;;5075824;28;20052;-69
2023/07/12 00:56:36;;;;;;;10.90;2.42;;;19.70;99.90;;;;;;5059483;28;20091;-69
2023/07/12 00:59:13;;;;;;;8.98;3.05;;;19.70;99.90;;;;;;5061015;28;20040;-69
2023/07/12 01:01:39;;;;;;;8.77;3.28;;;19.70;99.90;;;;;;5078676;28;20139;-69
2023/07/12 01:04:06;;;;;;;6.00;2.72;;;19.60;99.90;;;;;;5076438;28;20048;-69
2023/07/12 01:06:32;;;;;;;9.95;2.78;;;19.50;99.90;;;;;;5074510;28;20543;-69
2023/07/12 01:09:06;;;;;;;5.28;2.60;;;19.50;99.90;;;;;;5072412;28;20052;-69
2023/07/12 01:11:32;;;;;;;7.55;3.10;;;19.50;99.90;;;;;;5074812;28;20708;-69
2023/07/12 01:13:58;;;;;;;10.13;2.80;;;19.50;99.90;;;;;;5075026;28;20048;-69
2023/07/12 01:16:25;;;;;;;8.48;2.97;;;19.50;99.90;;;;;;5076949;28;20179;-70
2023/07/12 01:18:51;;;;;;;6.72;2.90;;;19.40;99.90;;;;;;5078386;28;20040;-69
2023/07/12 01:21:24;;;;;;;4.70;2.58;;;19.30;99.90;;;;;;5080254;28;20331;-68
2023/07/12 01:23:50;;;;;;;6.15;2.83;;;19.30;99.90;;;;;;5078938;28;20091;-68
2023/07/12 01:26:25;;;;;;;9.98;3.50;;;19.30;99.90;;;;;;5058810;28;20127;-68
2023/07/12 01:28:55;;;;;;;6.60;2.70;;;19.30;99.90;;;;;;5060010;28;20485;-69
2023/07/12 01:31:22;;;;;;;6.55;3.03;;;19.30;99.90;;;;;;5086867;28;20043;-68
2023/07/12 01:33:48;;;;;;;6.50;3.10;;;19.20;99.90;;;;;;5080885;28;20084;-70
2023/07/12 01:36:13;;;;;;;9.07;3.30;;;19.20;99.90;;;;;;5076503;28;20080;-69
2023/07/12 01:38:40;;;;;;;6.63;3.30;;;19.20;99.90;;;;;;5076469;28;20188;-69
2023/07/12 01:41:06;;;;;;;6.32;2.70;;;19.10;99.90;;;;;;5084768;28;20042;-69
2023/07/12 01:43:32;;;;;;;10.45;3.38;;;19.10;99.90;;;;;;5067870;28;20040;-69
2023/07/12 01:45:57;;;;;;;6.97;2.90;;;19.10;99.90;;;;;;5086427;28;20040;-68
2023/07/12 01:48:23;;;;;;;6.80;2.92;;;19.10;99.90;;;;;;5079252;28;20523;-69
2023/07/12 01:50:49;;;;;;;8.43;4.13;;;19.00;99.90;;;;;;5093520;27;20040;-68
2023/07/12 01:53:15;;;;;;;6.38;3.00;;;19.00;99.90;;;;;;5062777;28;20048;-67
2023/07/12 01:55:44;;;;;;;7.43;3.00;;;19.00;99.90;;;;;;5062087;28;20154;-69
2023/07/12 01:58:10;;;;;;;5.88;3.10;;;19.00;99.90;;;;;;5076654;28;20479;-69
2023/07/12 02:00:36;;;;;;;8.80;3.30;;;19.00;99.90;;;;;;5077979;28;20170;-68
2023/07/12 02:03:02;;;;;;;10.88;4.05;;;18.90;99.90;;;;;;5077556;28;20392;-68
2023/07/12 02:05:28;;;;;;;8.15;3.65;;;18.90;99.90;;;;;;5080946;28;20147;-69
2023/07/12 02:07:56;;;;;;;9.40;3.70;;;18.80;99.90;;;;;;5080596;28;20089;-68
2023/07/12 02:10:25;;;;;;;7.95;3.72;;;18.80;99.90;;;;;;5079161;28;20044;-68
2023/07/12 02:12:51;;;;;;;11.00;3.53;;;18.80;99.90;;;;;;5081703;28;20038;-68
2023/07/12 02:15:18;;;;;;;7.30;3.38;;;18.70;99.90;;;;;;5081241;28;20096;-68
2023/07/12 02:17:44;;;;;;;8.95;3.38;;;18.70;99.90;;;;;;5078502;28;20082;-68
2023/07/12 02:20:12;;;;;;;10.60;4.00;;;18.70;99.90;;;;;;5063348;28;20166;-68
2023/07/12 02:22:43;;;;;;;8.75;3.83;;;18.70;99.90;;;;;;5081828;28;20052;-68
2023/07/12 02:25:10;;;;;;;10.13;3.47;;;18.60;99.90;;;;;;5081250;28;20074;-69
2023/07/12 02:27:37;;;;;;;10.23;3.92;;;18.70;99.90;;;;;;5080260;28;20044;-69
2023/07/12 02:30:08;;;;;;;10.93;3.80;;;18.60;99.90;;;;;;5084709;28;20040;-69
2023/07/12 02:32:34;;;;;;;7.32;3.92;;;18.60;99.90;;;;;;5086331;28;20044;-69
2023/07/12 02:35:00;;;;;;;10.10;4.05;;;18.50;99.90;;;;;;5079149;28;20055;-69
2023/07/12 02:37:26;;;;;;;10.07;3.95;;;18.50;99.90;;;;;;5078144;28;20036;-69
2023/07/12 02:39:51;;;;;;;8.00;3.35;;;18.60;99.90;;;;;;5085242;28;20040;-69
2023/07/12 02:42:17;;;;;;;13.40;4.30;;;18.50;99.90;;;;;;5081452;28;20508;-70
2023/07/12 02:44:43;;;;;;;11.25;3.83;;;18.50;99.90;;;;;;5083533;28;20040;-69
2023/07/12 02:47:10;;;;;;;12.90;4.53;;;18.50;99.90;;;;;;5083546;28;20032;-69
2023/07/12 02:49:37;;;;;;;12.35;4.10;;;18.50;99.90;;;;;;5063806;28;20085;-70
2023/07/12 02:52:04;;;;;;;12.88;4.40;;;18.40;99.90;;;;;;5103339;28;20541;-69
2023/07/12 02:54:31;;;;;;;14.00;4.63;;;18.40;99.90;;;;;;5079751;28;20055;-69
2023/07/12 02:56:57;;;;;;;13.75;4.22;;;18.40;99.90;;;;;;5087363;28;20037;-69
2023/07/12 02:59:22;;;;;;;12.50;4.25;;;18.30;99.90;;;;;;5080960;28;20412;-69
2023/07/12 03:01:48;;;;;;;11.60;4.15;;;18.30;99.90;;;;;;5084662;28;20051;-68
2023/07/12 03:04:14;;;;;;;13.80;4.10;;;18.30;99.90;;;;;;5088727;28;20458;-69
2023/07/12 03:06:40;;;;;;;12.50;3.95;;;18.20;99.90;;;;;;5087531;28;20052;-69
2023/07/12 03:09:06;;;;;;;16.88;4.10;;;18.20;99.90;;;;;;5086370;28;20079;-69
2023/07/12 03:11:32;;;;;;;13.70;4.30;;;18.20;99.90;;;;;;5088964;28;20123;-69
2023/07/12 03:13:58;;;;;;;12.00;3.90;;;18.20;99.90;;;;;;5086252;28;20055;-69
2023/07/12 03:16:24;;;;;;;13.35;4.32;;;18.10;99.90;;;;;;5082841;28;20036;-68
2023/07/12 03:18:52;;;;;;;11.88;3.70;;;18.10;99.90;;;;;;5083035;28;20114;-69
2023/07/12 03:21:18;;;;;;;14.00;4.25;;;18.10;99.90;;;;;;5085855;28;20036;-68
2023/07/12 03:23:44;;;;;;;11.60;3.67;;;18.10;99.90;;;;;;5085368;28;20043;-69
2023/07/12 03:26:10;;;;;;;12.30;4.07;;;18.10;99.90;;;;;;5082275;28;20052;-73
2023/07/12 03:28:36;;;;;;;11.88;3.60;;;18.10;99.90;;;;;;5083779;28;20439;-73
2023/07/12 03:31:05;;;;;;;10.35;3.67;;;18.10;99.90;;;;;;5087302;28;20111;-73
2023/07/12 03:33:31;;;;;;;10.40;3.47;;;18.10;99.90;;;;;;5084874;28;20456;-73
2023/07/12 03:35:58;;;;;;;13.75;4.47;;;18.10;99.90;;;;;;5069348;28;20054;-73
2023/07/12 03:38:28;;;;;;;14.98;5.03;;;18.10;99.90;;;;;;5079315;28;20215;-73
2023/07/12 03:40:55;;;;;;;16.60;4.17;;;18.10;99.90;;;;;;5084107;28;20610;-75
2023/07/12 03:43:22;;;;;;;11.15;3.45;;;18.10;99.90;;;;;;5083021;28;20051;-72
2023/07/12 03:45:48;;;;;;;12.35;3.40;;;18.00;99.90;;;;;;5087763;28;20119;-72
2023/07/12 03:48:13;;;;;;;13.45;3.97;;;18.00;99.90;;;;;;5080736;28;20100;-73
2023/07/12 03:50:45;;;;;;;13.73;4.53;;;18.00;99.90;;;;;;5060046;28;20063;-73
2023/07/12 03:53:11;;;;;;;13.45;3.90;;;18.00;99.90;;;;;;5091074;28;20047;-74
2023/07/12 03:55:42;;;;;;;14.30;4.00;;;18.00;99.90;;;;;;5074627;28;20447;-73
2023/07/12 03:58:10;;;;;;;12.73;3.53;;;18.00;99.90;;;;;;5073652;28;20398;-72
2023/07/12 04:00:39;;;;;;;13.68;4.20;;;18.00;99.90;;;;;;5076785;28;20302;-73
2023/07/12 04:03:05;;;;;;;13.63;3.60;;;18.00;99.90;;;;;;5074136;28;20131;-72
2023/07/12 04:05:35;;;;;;;15.05;3.67;;;17.90;99.90;;;;;;5080204;28;20123;-72
2023/07/12 04:08:00;;;;;;;16.13;4.43;;;18.00;99.90;;;;;;5075141;28;20154;-73
2023/07/12 04:10:26;;;;;;;14.35;3.53;;;18.00;99.90;;;;;;5079475;28;20094;-73
2023/07/12 04:12:52;;;;;;;13.95;3.92;;;17.90;99.90;;;;;;5079834;28;20130;-73
2023/07/12 04:15:18;;;;;;;16.13;4.43;;;17.90;99.90;;;;;;5078837;28;20135;-73
2023/07/12 04:17:44;;;;;;;18.48;4.00;;;17.90;99.90;;;;;;5082590;28;20377;-72
2023/07/12 04:20:10;;;;;;;12.68;4.72;;;17.90;99.90;;;;;;5085452;28;20590;-71
2023/07/12 04:22:36;;;;;;;11.35;3.80;;;17.90;99.90;;;;;;5086908;28;20046;-74
2023/07/12 04:25:02;;;;;;;15.82;3.70;;;17.90;99.90;;;;;;5068597;28;20043;-72
2023/07/12 04:27:28;;;;;;;13.75;3.80;;;17.90;99.90;;;;;;5065274;28;20369;-73
2023/07/12 04:29:54;;;;;;;13.82;4.22;;;17.90;99.90;;;;;;5057450;28;20044;-73
2023/07/12 04:32:20;;;;;;;12.02;3.65;;;17.90;99.90;;;;;;5081875;28;20048;-72
2023/07/12 04:34:47;;;;;;;14.73;4.00;;;17.90;99.90;;;;;;5082483;28;20043;-73
2023/07/12 04:37:13;;;;;;;13.38;4.20;;;17.90;99.90;;;;;;5084270;28;20032;-73
2023/07/12 04:39:38;;;;;;;11.88;4.15;;;17.80;99.90;;;;;;5082330;28;20113;-73
2023/07/12 04:42:04;;;;;;;15.82;3.90;;;17.80;99.90;;;;;;5083083;28;20082;-73
2023/07/12 04:44:30;;;;;;;14.75;3.88;;;17.90;99.90;;;;;;5084096;28;20419;-73
2023/07/12 04:46:56;;;;;;;17.70;4.60;;;17.80;99.90;;;;;;5077705;28;20040;-73
2023/07/12 04:49:22;;;;;;;17.15;5.03;;;17.80;99.90;;;;;;5086137;28;20071;-73
2023/07/12 04:51:49;;;;;;;17.73;5.45;;;17.80;99.90;;;;;;5084419;28;20042;-72
2023/07/12 04:54:15;;;;;;;14.10;4.38;;;17.80;99.90;;;;;;5081621;28;20062;-73
2023/07/12 04:56:40;;;;;;;15.70;4.72;;;17.80;99.90;;;;;;5083589;28;20199;-73
2023/07/12 04:59:06;;;;;;;20.27;4.10;;;17.80;99.90;;;;;;5085042;28;20050;-73
2023/07/12 05:01:32;;;;;;;16.45;4.57;;;17.80;99.90;;;;;;5085369;28;20040;-73
2023/07/12 05:03:59;;;;;;;14.63;4.90;;;17.80;99.90;;;;;;5082484;28;20101;-73
2023/07/12 05:06:25;;;;;;;16.75;5.05;;;17.80;99.90;;;;;;5080649;28;20040;-73
2023/07/12 05:08:51;;;;;;;17.90;5.40;;;17.90;99.90;;;;;;5081286;28;20040;-73
2023/07/12 05:11:17;;;;;;;14.85;4.40;;;18.00;99.90;;;;;;5083714;28;20184;-73
2023/07/12 05:13:43;;;;;;;16.75;4.22;;;18.20;99.90;;;;;;5084880;28;20520;-72
2023/07/12 05:16:11;;;;;;;18.13;4.75;;;18.30;99.90;;;;;;5082581;28;20052;-73
2023/07/12 05:18:37;;;;;;;15.85;4.10;;;18.30;99.90;;;;;;5083227;28;20467;-73
2023/07/12 05:21:02;;;;;;;15.25;4.55;;;18.40;99.90;;;;;;5082257;28;20044;-73
2023/07/12 05:23:28;;;;;;;19.27;4.35;;;18.40;99.90;;;;;;5081610;28;20131;-73
2023/07/12 05:25:55;;;;;;;21.67;4.75;;;18.40;99.90;;;;;;5079513;28;20040;-73
2023/07/12 05:28:22;;;;;;;18.35;5.20;;;18.50;99.90;;;;;;5082651;28;20051;-74
2023/07/12 05:30:48;;;;;;;18.70;4.38;;;18.60;99.90;;;;;;5079345;28;20098;-73
2023/07/12 05:33:14;;;;;;;16.85;3.45;;;18.80;99.90;;;;;;5085059;28;20036;-73
2023/07/12 05:35:40;;;;;;;14.52;3.90;;;18.90;99.90;;;;;;5081548;28;20131;-73
2023/07/12 05:38:06;;;;;;;14.52;3.78;;;19.00;99.90;;;;;;5083142;28;20120;-73
2023/07/12 05:40:34;;;;;;;14.75;4.18;;;18.90;99.90;;;;;;5064062;28;20177;-73
2023/07/12 05:42:59;;;;;;;16.35;4.32;;;18.90;99.90;;;;;;5066496;28;20055;-73
2023/07/12 05:45:25;;;;;;;13.68;3.80;;;18.80;99.90;;;;;;5067760;28;20718;-74
2023/07/12 05:47:51;;;;;;;17.40;4.43;;;18.80;99.90;;;;;;5069031;28;20043;-74
2023/07/12 05:50:19;;;;;;;17.17;4.30;;;18.80;99.90;;;;;;5071733;28;20048;-72
2023/07/12 05:52:46;;;;;;;18.63;4.68;;;18.70;99.90;;;;;;5073604;28;20131;-72
2023/07/12 05:55:14;;;;;;;15.48;4.30;;;18.70;99.90;;;;;;5075770;28;20052;-73
2023/07/12 05:57:40;;;;;;;15.35;3.90;;;18.70;99.90;;;;;;5073303;28;20486;-73
2023/07/12 06:00:10;;;;;;;20.48;3.92;;;18.60;99.90;;;;;;5054494;28;20052;-73
2023/07/12 06:02:38;;;;;;;16.73;4.30;;;18.50;99.90;;;;;;5069989;28;20044;-73
2023/07/12 06:05:05;;;;;;;18.45;4.50;;;18.50;99.90;;;;;;5068074;28;20048;-73
2023/07/12 06:07:31;;;;;;;16.13;4.00;;;18.50;99.90;;;;;;5070909;28;20111;-72
2023/07/12 06:09:57;;;;;;;18.55;4.82;;;18.50;99.90;;;;;;5071541;28;20397;-73
2023/07/12 06:12:24;;;;;;;21.85;4.53;;;18.50;99.90;;;;;;5074706;28;20040;-73
2023/07/12 06:14:49;;;;;;;21.33;5.68;;;18.50;99.90;;;;;;5072264;28;20051;-72
2023/07/12 06:17:15;;;;;;;17.80;4.47;;;18.60;99.90;;;;;;5071217;28;20048;-72
2023/07/12 06:19:41;;;;;;;15.70;4.63;;;18.60;99.90;;;;;;5072932;28;20516;-72
2023/07/12 06:22:06;;;;;;;15.32;4.43;;;18.60;99.90;;;;;;5055808;28;20048;-72
2023/07/12 06:24:32;;;;;;;20.42;4.78;;;18.60;99.90;;;;;;5077127;28;20047;-71
2023/07/12 06:26:58;;;;;;;15.02;4.32;;;18.60;99.90;;;;;;5078458;28;20127;-73
2023/07/12 06:29:25;;;;;;;13.82;4.03;;;18.60;99.90;;;;;;5079343;28;20054;-73
2023/07/12 06:31:54;;;;;;;21.40;5.20;;;18.60;99.90;;;;;;5089082;28;20444;-73
2023/07/12 06:34:20;;;;;;;18.23;4.93;;;18.70;99.90;;;;;;5064159;28;20048;-71
2023/07/12 06:36:46;;;;;;;17.60;4.38;;;18.80;99.90;;;;;;5086123;28;20040;-72
2023/07/12 06:39:12;;;;;;;18.75;4.18;;;18.80;99.90;;;;;;5078254;28;20048;-72
2023/07/12 06:41:37;;;;;;;17.67;4.75;;;18.80;99.90;;;;;;5066132;28;20397;-71
2023/07/12 06:44:03;;;;;;;17.75;5.18;;;18.90;99.90;;;;;;5084745;28;20101;-72
2023/07/12 06:46:29;;;;;;;18.05;4.32;;;18.90;99.90;;;;;;5088118;28;20112;-73
2023/07/12 06:48:55;;;;;;;23.52;5.65;;;19.00;99.90;;;;;;5064846;28;20153;-73
2023/07/12 06:51:21;;;;;;;17.25;4.28;;;19.00;99.90;;;;;;5079472;28;20138;-73
2023/07/12 06:53:47;;;;;;;16.73;4.53;;;19.00;99.90;;;;;;5068745;28;20093;-73
2023/07/12 06:56:13;;;;;;;16.60;4.78;;;19.00;99.90;;;;;;5092714;28;20044;-73
2023/07/12 06:58:38;;;;;;;15.25;4.53;;;19.00;99.90;;;;;;5086860;28;20028;-73
2023/07/12 07:01:09;;;;;;;15.73;4.18;;;19.00;99.90;;;;;;5085654;28;20036;-73
2023/07/12 07:03:35;;;;;;;20.17;3.97;;;19.00;99.90;;;;;;5088607;28;20870;-73
2023/07/12 07:06:01;;;;;;;15.45;3.67;;;19.00;99.90;;;;;;5084835;28;20060;-71
2023/07/12 07:08:27;;;;;;;18.25;4.03;;;19.10;99.90;;;;;;5087663;28;20603;-72
2023/07/12 07:10:54;;;;;;;16.77;3.88;;;19.10;99.90;;;;;;5077996;28;20133;-72
2023/07/12 07:13:24;;;;;;;18.35;4.53;;;19.10;99.90;;;;;;5077738;28;20831;-72
2023/07/12 07:15:51;;;;;;;17.27;4.03;;;19.10;99.90;;;;;;5078086;28;20041;-72
2023/07/12 07:18:16;;;;;;;16.80;3.70;;;19.10;99.90;;;;;;5084976;28;20048;-72
2023/07/12 07:20:43;;;;;;;15.23;3.70;;;19.10;99.90;;;;;;5084542;28;20050;-71
2023/07/12 07:23:10;;;;;;;17.58;4.07;;;19.10;99.90;;;;;;5084791;28;20044;-72
2023/07/12 07:25:37;;;;;;;17.40;3.80;;;19.20;99.90;;;;;;5082523;28;20044;-73
2023/07/12 07:28:03;;;;;;;17.65;4.00;;;19.20;99.90;;;;;;5082782;28;20114;-72
2023/07/12 07:30:29;;;;;;;21.02;3.92;;;19.20;99.90;;;;;;5085852;28;20520;-71
2023/07/12 07:32:55;;;;;;;19.10;4.50;;;19.40;99.90;;;;;;5083842;28;20036;-72
2023/07/12 07:35:21;;;;;;;16.20;3.00;;;19.40;99.90;;;;;;5083446;28;20750;-72
2023/07/12 07:37:48;;;;;;;14.95;3.80;;;19.50;99.90;;;;;;5051960;28;20515;-71
2023/07/12 07:40:14;;;;;;;15.40;3.97;;;19.50;99.90;;;;;;5088816;28;20126;-72
2023/07/12 07:42:40;;;;;;;12.70;3.20;;;19.50;99.90;;;;;;5082982;28;20043;-72
2023/07/12 07:45:07;;;;;;;12.63;3.15;;;19.50;99.90;;;;;;5082704;28;20040;-72
2023/07/12 07:47:33;;;;;;;17.23;3.90;;;19.50;99.90;;;;;;5082119;28;20040;-72
2023/07/12 07:49:59;;;;;;;16.55;4.90;;;19.50;99.90;;;;;;5077685;28;20043;-71
2023/07/12 07:52:24;;;;;;;10.15;2.85;;;19.40;99.90;;;;;;5082946;28;20126;-71
2023/07/12 07:54:53;;;;;;;13.15;3.08;;;19.40;99.90;;;;;;5076145;28;20089;-71
2023/07/12 07:57:20;;;;;;;11.68;2.40;;;19.40;99.90;;;;;;5083270;28;20108;-71
2023/07/12 07:59:46;;;;;;;9.15;2.33;;;19.40;99.90;;;;;;5076416;28;20408;-71
2023/07/12 08:02:11;;;;;;;10.88;2.65;;;19.40;99.90;;;;;;5077874;28;20401;-72
2023/07/12 08:04:37;;;;;;;11.45;2.72;;;19.40;99.90;;;;;;5077481;28;20040;-72
2023/07/12 08:07:05;;;;;;;16.83;3.30;;;19.40;99.90;;;;;;5062179;28;20052;-73
2023/07/12 08:09:34;;;;;;;12.13;3.22;;;19.30;99.90;;;;;;5075805;28;20135;-74
2023/07/12 08:11:59;;;;;;;7.88;2.17;;;19.30;99.90;;;;;;5085503;28;20043;-74
2023/07/12 08:14:26;;;;;;;11.27;2.33;;;19.10;99.90;;;;;;5060456;28;20036;-74
2023/07/12 08:16:52;;;;;;;9.63;2.03;;;19.10;99.90;;;;;;5083489;28;20128;-74
2023/07/12 08:19:17;;;;;;;7.70;2.10;;;19.00;99.90;;;;;;5085594;28;20119;-75
2023/07/12 08:21:43;;;;;;;9.93;2.33;;;18.90;99.90;;;;;;5080271;28;20101;-75
2023/07/12 08:24:09;;;;;;;9.30;2.45;;;18.80;99.90;;;;;;5077153;28;20040;-75
2023/07/12 08:26:36;;;;;;;10.32;2.42;;;18.80;99.90;;;;;;5085145;28;20504;-75
2023/07/12 08:29:02;;;;;;;7.80;2.20;;;18.80;99.90;;;;;;5080211;28;20040;-76
2023/07/12 08:31:28;;;;;;;14.88;2.72;;;18.80;99.90;;;;;;5071722;28;20222;-75
2023/07/12 08:33:55;;;;;;;13.95;3.40;;;18.90;99.90;;;;;;5082222;28;20126;-77
2023/07/12 08:36:21;;;;;;;12.50;4.03;;;18.90;99.90;;;;;;5079178;28;20122;-76
2023/07/12 08:38:47;;;;;;;13.95;3.13;;;18.90;99.90;;;;;;5083539;28;20061;-75
2023/07/12 08:41:18;;;;;;;10.68;3.13;;;19.00;99.90;;;;;;5079585;28;20063;-75
2023/07/12 08:43:44;;;;;;;11.18;3.10;;;19.00;99.90;;;;;;5073413;28;20048;-76
2023/07/12 08:46:21;;;;;;;11.98;3.55;;;19.00;99.90;;;;;;5079072;28;20491;-75
2023/07/12 08:48:53;;;;;;;12.13;3.10;;;18.90;99.90;;;;;;5078709;28;20044;-75
2023/07/12 08:51:30;;;;;;;12.60;3.53;;;18.90;99.90;;;;;;5058833;28;20497;-75
2023/07/12 08:53:56;;;;;;;12.90;3.33;;;18.90;99.90;;;;;;5084307;28;20044;-75
2023/07/12 08:56:23;;;;;;;12.40;3.45;;;18.90;99.90;;;;;;5087394;28;20433;-75
2023/07/12 08:58:51;;;;;;;14.32;3.85;;;18.90;99.90;;;;;;5058127;28;20044;-75
2023/07/12 09:01:42;;;;;;;12.88;3.35;;;19.00;99.90;;;;;;5080984;28;20051;-76
2023/07/12 09:04:26;;;;;;;12.35;3.97;;;19.20;99.90;;;;;;5102610;27;20125;-75
2023/07/12 09:06:59;;;;;;;13.38;3.80;;;19.30;99.90;;;;;;5077109;28;20071;-75
2023/07/12 09:09:27;;;;;;;14.98;4.60;;;19.50;99.90;;;;;;5079115;28;20149;-75
2023/07/12 09:11:54;;;;;;;11.77;3.10;;;19.60;99.90;;;;;;5079034;28;20044;-74
2023/07/12 09:14:23;;;;;;;12.10;3.00;;;19.60;99.90;;;;;;5084423;28;20051;-75
2023/07/12 09:16:54;;;;;;;12.73;3.00;;;19.60;99.90;;;;;;5057181;28;20083;-75
2023/07/12 09:19:31;;;;;;;13.13;2.90;;;19.60;99.90;;;;;;5096191;28;20044;-75
2023/07/12 09:22:00;;;;;;;14.02;3.13;;;19.60;99.90;;;;;;5072748;28;20187;-74
2023/07/12 09:24:31;;;;;;;13.57;3.20;;;19.50;99.90;;;;;;5054975;28;20055;-75
2023/07/12 09:27:05;;;;;;;12.60;2.85;;;19.60;99.90;;;;;;5076260;28;20051;-74
2023/07/12 09:29:33;;;;;;;10.38;2.88;;;19.50;99.90;;;;;;5092783;28;20048;-73
2023/07/12 09:32:15;;;;;;;9.65;2.90;;;19.60;99.90;;;;;;5055258;28;20156;-73
2023/07/12 09:34:41;;;;;;;9.25;3.08;;;19.60;99.90;;;;;;5074220;28;20043;-75
2023/07/12 09:37:16;;;;;;;10.63;3.30;;;19.70;99.90;;;;;;5069586;28;20145;-74
2023/07/12 09:39:51;;;;;;;9.20;2.40;;;19.70;99.90;;;;;;5059057;28;20262;-74
2023/07/12 09:42:17;;;;;;;9.20;2.55;;;19.80;99.90;;;;;;5070197;28;20040;-75
2023/07/12 09:44:45;;;;;;;9.63;2.70;;;19.90;99.90;;;;;;5075605;28;20044;-74
2023/07/12 09:47:34;;;;;;;9.73;2.50;;;19.90;99.90;;;;;;5064697;28;20048;-74
2023/07/12 09:50:08;;;;;;;7.47;2.10;;;20.00;99.90;;;;;;5080346;28;20105;-74
2023/07/12 09:52:45;;;;;;;12.18;3.28;;;20.10;99.90;;;;;;5078745;28;20489;-74
2023/07/12 09:55:20;;;;;;;9.77;2.47;;;20.30;99.90;;;;;;5073790;28;20043;-73
2023/07/12 09:57:54;;;;;;;9.55;2.60;;;20.40;99.90;;;;;;5074756;28;20040;-72
2023/07/12 10:00:37;;;;;;;8.35;2.33;;;20.50;99.90;;;;;;5082853;28;20040;-73
2023/07/12 10:03:20;;;;;;;7.95;2.63;;;20.60;99.90;;;;;;5075443;28;20048;-73
2023/07/12 10:05:54;;;;;;;8.38;2.10;;;20.80;99.90;;;;;;5077393;28;20044;-73
2023/07/12 10:08:22;;;;;;;10.77;2.40;;;20.80;99.90;;;;;;5079327;28;20139;-72
2023/07/12 10:11:00;;;;;;;7.30;2.10;;;20.90;99.90;;;;;;5076497;28;20105;-74
2023/07/12 10:13:42;;;;;;;7.35;2.00;;;20.90;99.90;;;;;;5078606;28;20060;-73
2023/07/12 10:16:21;;;;;;;7.35;2.20;;;20.90;99.90;;;;;;5068194;28;20060;-74
2023/07/12 10:18:49;;;;;;;5.82;2.00;;;21.00;99.90;;;;;;5059486;28;20044;-75
2023/07/12 10:21:24;;;;;;;8.73;1.90;;;21.00;99.90;;;;;;5085931;28;20056;-74
2023/07/12 10:24:00;;;;;;;7.45;2.13;;;21.10;99.90;;;;;;5079083;28;20040;-74
2023/07/12 10:26:26;;;;;;;7.30;2.08;;;21.00;99.90;;;;;;5073397;28;20835;-74
2023/07/12 10:29:13;;;;;;;6.55;2.03;;;21.00;99.90;;;;;;5056998;28;20040;-72
2023/07/12 10:31:56;;;;;;;6.47;1.95;;;21.00;99.90;;;;;;5056014;28;20044;-73
2023/07/12 10:34:38;;;;;;;6.57;2.03;;;21.00;99.90;;;;;;5081253;28;20127;-74
2023/07/12 10:37:18;;;;;;;7.75;1.80;;;21.00;99.90;;;;;;5078362;28;20059;-74
2023/07/12 10:39:52;;;;;;;6.05;1.73;;;21.00;99.90;;;;;;5069483;28;20951;-74
2023/07/12 10:42:31;;;;;;;9.48;2.40;;;20.90;99.90;;;;;;5076724;28;20073;-74
2023/07/12 10:44:58;;;;;;;7.15;1.83;;;20.80;99.90;;;;;;5072688;28;20040;-73
2023/07/12 10:47:36;;;;;;;8.23;2.13;;;20.80;99.90;;;;;;5061750;28;20058;-74
2023/07/12 10:50:06;;;;;;;9.45;1.63;;;21.00;99.90;;;;;;5068634;28;20048;-73
2023/07/12 10:52:59;;;;;;;5.95;1.77;;;21.00;99.90;;;;;;5078305;28;20055;-73
2023/07/12 10:55:34;;;;;;;8.38;1.98;;;21.00;99.90;;;;;;5059214;28;20066;-73
2023/07/12 10:58:25;;;;;;;7.45;1.73;;;21.00;99.90;;;;;;5073160;28;20048;-72
2023/07/12 11:00:56;;;;;;;6.03;1.70;;;21.10;99.90;;;;;;5074616;28;20101;-73
2023/07/12 11:03:38;;;;;;;8.38;1.35;;;21.10;99.90;;;;;;5066958;28;20472;-72
2023/07/12 11:06:20;;;;;;;8.27;1.58;;;21.20;99.90;;;;;;5069027;28;20071;-73
2023/07/12 11:09:12;;;;;;;4.70;1.35;;;21.20;99.90;;;;;;5053139;28;20799;-74
2023/07/12 11:11:44;;;;;;;7.18;1.60;;;21.20;99.90;;;;;;5069730;28;20062;-72
2023/07/12 11:14:41;;;;;;;5.68;1.23;;;21.30;99.90;;;;;;5084498;28;20063;-72
2023/07/12 11:17:06;;;;;;;4.68;1.40;;;21.30;99.90;;;;;;5027080;28;20616;-72
2023/07/12 11:19:32;;;;;;;8.68;1.45;;;21.40;99.90;;;;;;5066771;28;20044;-72
2023/07/12 11:22:08;;;;;;;8.32;1.42;;;21.40;99.90;;;;;;5068959;28;20044;-72
2023/07/12 11:24:39;;;;;;;4.07;1.10;;;21.40;99.90;;;;;;5065672;28;20131;-72
2023/07/12 11:27:23;;;;;;;6.07;1.40;;;21.40;99.90;;;;;;5060712;28;20138;-73
2023/07/12 11:29:54;;;;;;;4.55;1.52;;;21.40;99.90;;;;;;5065672;28;20309;-73
2023/07/12 11:32:32;;;;;;;3.72;1.00;;;21.40;99.90;;;;;;5067973;28;20074;-74
2023/07/12 11:35:19;;;;;;;5.03;1.38;;;21.50;99.90;;;;;;5051284;28;20047;-74
2023/07/12 11:37:49;;;;;;;5.63;1.00;;;21.50;99.90;;;;;;5052145;28;21341;-74
2023/07/12 11:40:21;;;;;;;4.83;0.93;;;21.60;99.90;;;;;;5066620;28;20060;-73
2023/07/12 11:42:48;;;;;;;4.72;1.33;;;21.60;99.90;;;;;;5062976;28;20044;-73
2023/07/12 11:45:17;;;;;;;4.95;1.27;;;21.60;99.90;;;;;;5067132;28;20052;-73
2023/07/12 11:48:07;;;;;;;5.93;1.20;;;21.50;99.90;;;;;;5067253;28;20044;-73
2023/07/12 11:50:34;;;;;;;4.53;0.95;;;21.50;99.90;;;;;;5068986;28;20069;-74
2023/07/12 11:53:02;;;;;;;9.40;1.95;;;21.60;99.90;;;;;;5068105;28;20093;-73
2023/07/12 11:55:28;;;;;;;6.05;1.10;;;21.60;99.90;;;;;;5071281;28;20045;-71
2023/07/12 11:57:55;;;;;;;5.13;1.20;;;21.70;99.90;;;;;;5067896;28;20039;-69
2023/07/12 12:00:24;;;;;;;3.85;1.10;;;21.70;99.90;;;;;;5065688;28;20170;-71
2023/07/12 12:02:53;;;;;;;3.25;1.10;;;21.70;99.90;;;;;;5066459;28;20162;-70
2023/07/12 12:05:26;;;;;;;4.85;1.05;;;21.60;99.90;;;;;;5066345;28;20052;-70
2023/07/12 12:07:55;;;;;;;6.90;1.25;;;21.60;99.90;;;;;;5068430;28;20055;-70
2023/07/12 12:10:32;;;;;;;4.45;0.90;;;21.60;99.90;;;;;;5050073;28;20089;-69
2023/07/12 12:12:58;;;;;;;5.00;1.23;;;21.60;99.90;;;;;;5065261;28;20127;-69
2023/07/12 12:15:27;;;;;;;5.43;1.10;;;21.70;99.90;;;;;;5066672;28;20134;-72
2023/07/12 12:17:54;;;;;;;4.80;1.10;;;21.70;99.90;;;;;;5067682;28;20080;-72
2023/07/12 12:20:25;;;;;;;5.63;0.85;;;21.70;99.90;;;;;;5051147;28;20562;-72
2023/07/12 12:22:56;;;;;;;3.55;1.08;;;21.70;99.90;;;;;;5056976;28;20045;-73
2023/07/12 12:25:24;;;;;;;5.80;1.33;;;21.70;99.90;;;;;;5068623;28;20131;-72
2023/07/12 12:27:51;;;;;;;8.20;1.48;;;21.70;99.90;;;;;;5046324;28;20054;-72
2023/07/12 12:30:29;;;;;;;4.95;1.20;;;21.70;99.90;;;;;;5049734;28;20052;-72
2023/07/12 12:33:20;;;;;;;7.53;1.17;;;21.70;99.90;;;;;;5065827;28;20512;-72
2023/07/12 12:35:55;;;;;;;4.93;1.00;;;21.70;99.90;;;;;;5069009;28;20046;-73
2023/07/12 12:38:25;;;;;;;4.80;1.00;;;21.80;99.90;;;;;;5065839;28;21182;-71
2023/07/12 12:40:58;;;;;;;5.35;0.95;;;21.80;99.90;;;;;;5066469;28;20040;-73
2023/07/12 12:43:24;;;;;;;;;;;21.90;99.90;;;;;;5049674;28;20044;-73
2023/07/12 12:45:50;;;;;;;4.72;1.08;;;21.90;99.90;;;;;;5063689;28;19931;-73
2023/07/12 12:48:16;;;;;;;4.85;0.93;;;21.80;99.90;;;;;;5065503;28;20044;-72
2023/07/12 12:50:41;;;;;;;5.10;1.08;;;21.90;99.90;;;;;;5047291;28;20493;-73